Keiho Maru — JJ4010 — position and weather

sailwx.info

Track history (hours):
 
Tides and Currents Weather Stations Pressure Air Temp Water Temp Dewpoint Dewpoint Depression Visibility Wind Speed Wind Dir Waves Ship Positions

Keiho Maru

Last reported at 2018-Feb-20 06:55 UTC. Time now 2018-Feb-22 06:57 UTC.
Position N 34°41' E 135°12'.

Length 38 m; draft 3.6 m.

Type: Tug. MMSI: 431401501.

Date/timePositionNaut miles runAvg speedWind from/ knotsBaromVisibWave heightAir tempDewpointWater temp
2018-Feb-20 06:55N 34°41' E 135°12'0 0.0
2018-Feb-20 06:31N 34°41' E 135°12'0 0.0
2018-Feb-20 06:01N 34°41' E 135°12'0 0.0
2018-Feb-20 05:30N 34°41' E 135°12'4 7.3
2018-Feb-20 05:00N 34°41' E 135°17'611.4
2018-Feb-20 04:30N 34°40' E 135°23'2 3.3
2018-Feb-20 04:01N 34°39' E 135°25'1 1.2
2018-Feb-20 03:30N 34°39' E 135°25'510.7
2018-Feb-20 03:00N 34°41' E 135°18'5 9.6
2018-Feb-20 02:31N 34°41' E 135°13'1 1.2
2018-Feb-20 02:00N 34°41' E 135°12'0 0.0
2018-Feb-20 01:31N 34°41' E 135°12'0 0.0
2018-Feb-20 01:01N 34°41' E 135°12'  
2018-Feb-16 07:00N 34°41' E 135°12'1 1.2
2018-Feb-16 06:31N 34°40' E 135°11'0 0.9
2018-Feb-16 06:00N 34°40' E 135°11'0 0.7
2018-Feb-16 05:30N 34°40' E 135°12'1 2.2
2018-Feb-16 05:00N 34°41' E 135°12'0 0.0
2018-Feb-16 04:30N 34°41' E 135°12'0 0.0
2018-Feb-16 04:01N 34°41' E 135°12'0 0.0
2018-Feb-16 03:31N 34°41' E 135°12'0 0.0
2018-Feb-16 03:01N 34°41' E 135°12'0 0.0
2018-Feb-16 02:31N 34°41' E 135°12'0 0.0
2018-Feb-16 01:59N 34°41' E 135°12'0 0.0
2018-Feb-16 01:31N 34°41' E 135°12'0 0.0
2018-Feb-16 01:00N 34°41' E 135°12'0 0.0
2018-Feb-16 00:30N 34°41' E 135°12'1 2.3
2018-Feb-16 00:00N 34°41' E 135°13'1 2.7
2018-Feb-15 23:31N 34°40' E 135°14'1 2.0
2018-Feb-15 23:01N 34°39' E 135°15'0 0.0
2018-Feb-15 22:31N 34°39' E 135°15'0 0.0
2018-Feb-15 22:00N 34°39' E 135°15'3 5.0
2018-Feb-15 21:30N 34°40' E 135°12'1 1.7
2018-Feb-15 21:01N 34°41' E 135°12'0 0.0
2018-Feb-15 11:10N 34°41' E 135°12'0 0.6
2018-Feb-15 11:01N 34°40' E 135°12'2 4.6
2018-Feb-15 10:30N 34°39' E 135°15'1 2.2
2018-Feb-15 10:01N 34°39' E 135°16'2 4.9
2018-Feb-15 09:30N 34°40' E 135°13'0 0.0
2018-Feb-15 09:00N 34°40' E 135°13'0 0.0
2018-Feb-15 08:30N 34°40' E 135°13'3 5.3
2018-Feb-15 08:00N 34°42' E 135°16'0 0.7
2018-Feb-15 07:30N 34°42' E 135°15'3 5.8
2018-Feb-15 07:01N 34°41' E 135°12'0 0.0
2018-Feb-15 06:30N 34°41' E 135°12'0 0.0
2018-Feb-15 06:00N 34°41' E 135°12'0 0.0
2018-Feb-15 05:31N 34°41' E 135°12'0 0.0
2018-Feb-15 05:01N 34°41' E 135°12'0 0.0
2018-Feb-15 04:30N 34°41' E 135°12'0 0.0
2018-Feb-15 04:00N 34°41' E 135°12'0 0.0
2018-Feb-15 03:30N 34°41' E 135°12'0 0.0
2018-Feb-15 03:00N 34°41' E 135°12'0 0.0
2018-Feb-15 02:30N 34°41' E 135°12'0 0.0
2018-Feb-15 02:00N 34°41' E 135°12'0 0.0
2018-Feb-15 01:30N 34°41' E 135°12'0 0.0
2018-Feb-15 01:00N 34°41' E 135°12'0 0.0
2018-Feb-15 00:31N 34°41' E 135°12'0 0.0
2018-Feb-15 00:00N 34°41' E 135°12'2 4.4
2018-Feb-14 23:31N 34°42' E 135°14'2 4.1
2018-Feb-14 23:00N 34°42' E 135°17'1 2.2
2018-Feb-14 22:31N 34°41' E 135°18'2 4.7
2018-Feb-14 22:00N 34°41' E 135°15'1 2.1
2018-Feb-14 21:30N 34°42' E 135°16'2 4.9
2018-Feb-14 21:01N 34°41' E 135°13'1 1.6
2018-Feb-14 20:31N 34°41' E 135°12'0 0.0
2018-Feb-14 07:53N 34°41' E 135°12'2 6.3
2018-Feb-14 07:30N 34°40' E 135°15'0 0.5
2018-Feb-14 07:01N 34°40' E 135°15'2 4.3
2018-Feb-14 06:30N 34°41' E 135°12'0 0.0
2018-Feb-14 06:00N 34°41' E 135°12'0 0.0
2018-Feb-14 05:30N 34°41' E 135°12'0 0.0
2018-Feb-14 05:00N 34°41' E 135°12'0 0.0
2018-Feb-14 04:30N 34°41' E 135°12'0 0.0
2018-Feb-14 04:00N 34°41' E 135°12'0 0.0
2018-Feb-14 03:30N 34°41' E 135°12'0 0.0
2018-Feb-14 03:00N 34°41' E 135°12'0 0.0
2018-Feb-14 02:30N 34°41' E 135°12'0 0.0
2018-Feb-14 02:00N 34°41' E 135°12'0 0.0
2018-Feb-14 01:31N 34°41' E 135°12'0 0.0
2018-Feb-14 01:00N 34°41' E 135°12'2 3.5
2018-Feb-14 00:31N 34°41' E 135°14'3 5.2
2018-Feb-14 00:00N 34°41' E 135°17'0 0.6
2018-Feb-13 23:30N 34°41' E 135°18'4 8.7
2018-Feb-13 23:00N 34°41' E 135°12'0 0.6
2018-Feb-13 22:30N 34°41' E 135°12'0 0.0
2018-Feb-13 22:00N 34°41' E 135°12'0 0.0
2018-Feb-13 21:31N 34°41' E 135°12'0 0.0
2018-Feb-13 21:00N 34°41' E 135°12'0 0.0
2018-Feb-13 20:30N 34°41' E 135°12'0 0.0
2018-Feb-13 13:51N 34°41' E 135°12'2 5.5
2018-Feb-13 13:30N 34°41' E 135°14'1 2.5
2018-Feb-13 13:00N 34°41' E 135°16'0 0.2
2018-Feb-13 12:31N 34°41' E 135°16'1 2.0
2018-Feb-13 12:01N 34°40' E 135°15'1 1.0
2018-Feb-13 11:30N 34°39' E 135°15'2 3.3
2018-Feb-13 11:01N 34°41' E 135°15'1 2.5
2018-Feb-13 10:30N 34°42' E 135°16'0 0.0
2018-Feb-13 10:00N 34°42' E 135°16'0 0.0
2018-Feb-13 09:30N 34°42' E 135°16'0 0.0
2018-Feb-13 09:01N 34°42' E 135°16'0 0.0
2018-Feb-13 08:31N 34°42' E 135°16'1 2.8
2018-Feb-13 08:01N 34°41' E 135°18'0 0.5
2018-Feb-13 07:30N 34°41' E 135°17'1 1.5
2018-Feb-13 07:01N 34°42' E 135°17'2 3.0
2018-Feb-13 06:31N 34°42' E 135°15'2 4.9
2018-Feb-13 06:00N 34°41' E 135°12'0 0.0
2018-Feb-13 05:31N 34°41' E 135°12'0 0.0
2018-Feb-13 05:00N 34°41' E 135°12'0 0.0
2018-Feb-13 04:30N 34°41' E 135°12'0 0.0
2018-Feb-13 04:01N 34°41' E 135°12'0 0.0
2018-Feb-13 03:30N 34°41' E 135°12'0 0.0
2018-Feb-13 03:00N 34°41' E 135°12'0 0.0
2018-Feb-13 02:30N 34°41' E 135°12'0 0.0
2018-Feb-13 02:01N 34°41' E 135°12'0 0.0
2018-Feb-13 01:31N 34°41' E 135°12'1 1.7
2018-Feb-13 01:00N 34°40' E 135°11'0 0.2
2018-Feb-13 00:30N 34°40' E 135°11'0 0.0
2018-Feb-13 00:01N 34°40' E 135°11'0 0.1
2018-Feb-12 23:30N 34°40' E 135°11'1 1.0
2018-Feb-12 23:01N 34°41' E 135°11'0 0.1
2018-Feb-12 22:30N 34°41' E 135°11'1 1.6
2018-Feb-12 22:00N 34°41' E 135°12'0 0.0
2018-Feb-12 21:31N 34°41' E 135°12'0 0.0
2018-Feb-12 05:54N 34°41' E 135°12'0 0.0
2018-Feb-12 05:30N 34°41' E 135°12'0 0.0
2018-Feb-12 05:00N 34°41' E 135°12'0 0.0
2018-Feb-12 04:30N 34°41' E 135°12'0 0.0
2018-Feb-12 04:00N 34°41' E 135°12'0 0.0
2018-Feb-12 03:30N 34°41' E 135°12'0 0.0
2018-Feb-12 03:00N 34°41' E 135°12'0 0.0
2018-Feb-12 02:30N 34°41' E 135°12'0 0.0
2018-Feb-12 02:00N 34°41' E 135°12'0 0.0
2018-Feb-12 01:30N 34°41' E 135°12'1 2.7
2018-Feb-12 01:00N 34°40' E 135°11'0 0.6
2018-Feb-12 00:30N 34°39' E 135°11'1 2.7
2018-Feb-12 00:00N 34°41' E 135°12'0 0.0
2018-Feb-11 23:30N 34°41' E 135°12'0 0.0
2018-Feb-11 23:00N 34°41' E 135°12'0 0.0
2018-Feb-11 22:30N 34°41' E 135°12'0 0.0
2018-Feb-11 06:54N 34°41' E 135°12'2 5.8
2018-Feb-11 06:30N 34°41' E 135°15'2 4.2
2018-Feb-11 06:00N 34°41' E 135°17'0 0.2
2018-Feb-11 05:29N 34°41' E 135°18'1 2.1
2018-Feb-11 05:00N 34°40' E 135°18'3 6.2
2018-Feb-11 04:30N 34°41' E 135°15'2 4.2
2018-Feb-11 04:01N 34°41' E 135°12'0 0.0
2018-Feb-11 03:30N 34°41' E 135°12'0 0.0
2018-Feb-11 03:00N 34°41' E 135°12'0 0.0
2018-Feb-11 02:31N 34°41' E 135°12'0 0.0
2018-Feb-11 02:00N 34°41' E 135°12'0 0.0
2018-Feb-11 01:30N 34°41' E 135°12'0 0.0
2018-Feb-11 01:00N 34°41' E 135°12'0 0.0
2018-Feb-11 00:30N 34°41' E 135°12'0 0.0
2018-Feb-11 00:00N 34°41' E 135°12'0 0.0
2018-Feb-10 23:30N 34°41' E 135°12'0 0.1
2018-Feb-10 23:00N 34°41' E 135°12'2 3.6
2018-Feb-10 22:30N 34°40' E 135°14'2 3.5
2018-Feb-10 22:00N 34°39' E 135°16'3 6.1
2018-Feb-10 21:30N 34°41' E 135°13'1 1.8
2018-Feb-10 21:00N 34°41' E 135°12'0 0.0
2018-Feb-10 08:24N 34°41' E 135°12'3 6.6
2018-Feb-10 08:01N 34°42' E 135°15'0 0.2
2018-Feb-10 07:31N 34°42' E 135°15'2 4.9
2018-Feb-10 07:01N 34°41' E 135°12'  
Track history (hours):
 
Tides and Currents Weather Stations Pressure Air Temp Water Temp Dewpoint Dewpoint Depression Visibility Wind Speed Wind Dir Waves Ship Positions

Keiho Maru

Last reported at 2018-Feb-20 06:55 UTC. Time now 2018-Feb-22 06:57 UTC.
Position N 34°41' E 135°12'.

Length 38 m; draft 3.6 m.

Type: Tug. MMSI: 431401501.

Date/timePositionNaut miles runAvg speedWind from/ knotsBaromVisibWave heightAir tempDewpointWater temp
2018-Feb-20 06:55N 34°41' E 135°12'0 0.0
2018-Feb-20 06:31N 34°41' E 135°12'0 0.0
2018-Feb-20 06:01N 34°41' E 135°12'0 0.0
2018-Feb-20 05:30N 34°41' E 135°12'4 7.3
2018-Feb-20 05:00N 34°41' E 135°17'611.4
2018-Feb-20 04:30N 34°40' E 135°23'2 3.3
2018-Feb-20 04:01N 34°39' E 135°25'1 1.2
2018-Feb-20 03:30N 34°39' E 135°25'510.7
2018-Feb-20 03:00N 34°41' E 135°18'5 9.6
2018-Feb-20 02:31N 34°41' E 135°13'1 1.2
2018-Feb-20 02:00N 34°41' E 135°12'0 0.0
2018-Feb-20 01:31N 34°41' E 135°12'0 0.0
2018-Feb-20 01:01N 34°41' E 135°12'  
2018-Feb-16 07:00N 34°41' E 135°12'1 1.2
2018-Feb-16 06:31N 34°40' E 135°11'0 0.9
2018-Feb-16 06:00N 34°40' E 135°11'0 0.7
2018-Feb-16 05:30N 34°40' E 135°12'1 2.2
2018-Feb-16 05:00N 34°41' E 135°12'0 0.0
2018-Feb-16 04:30N 34°41' E 135°12'0 0.0
2018-Feb-16 04:01N 34°41' E 135°12'0 0.0
2018-Feb-16 03:31N 34°41' E 135°12'0 0.0
2018-Feb-16 03:01N 34°41' E 135°12'0 0.0
2018-Feb-16 02:31N 34°41' E 135°12'0 0.0
2018-Feb-16 01:59N 34°41' E 135°12'0 0.0
2018-Feb-16 01:31N 34°41' E 135°12'0 0.0
2018-Feb-16 01:00N 34°41' E 135°12'0 0.0
2018-Feb-16 00:30N 34°41' E 135°12'1 2.3
2018-Feb-16 00:00N 34°41' E 135°13'1 2.7
2018-Feb-15 23:31N 34°40' E 135°14'1 2.0
2018-Feb-15 23:01N 34°39' E 135°15'0 0.0
2018-Feb-15 22:31N 34°39' E 135°15'0 0.0
2018-Feb-15 22:00N 34°39' E 135°15'3 5.0
2018-Feb-15 21:30N 34°40' E 135°12'1 1.7
2018-Feb-15 21:01N 34°41' E 135°12'0 0.0
2018-Feb-15 11:10N 34°41' E 135°12'0 0.6
2018-Feb-15 11:01N 34°40' E 135°12'2 4.6
2018-Feb-15 10:30N 34°39' E 135°15'1 2.2
2018-Feb-15 10:01N 34°39' E 135°16'2 4.9
2018-Feb-15 09:30N 34°40' E 135°13'0 0.0
2018-Feb-15 09:00N 34°40' E 135°13'0 0.0
2018-Feb-15 08:30N 34°40' E 135°13'3 5.3
2018-Feb-15 08:00N 34°42' E 135°16'0 0.7
2018-Feb-15 07:30N 34°42' E 135°15'3 5.8
2018-Feb-15 07:01N 34°41' E 135°12'0 0.0
2018-Feb-15 06:30N 34°41' E 135°12'0 0.0
2018-Feb-15 06:00N 34°41' E 135°12'0 0.0
2018-Feb-15 05:31N 34°41' E 135°12'0 0.0
2018-Feb-15 05:01N 34°41' E 135°12'0 0.0
2018-Feb-15 04:30N 34°41' E 135°12'0 0.0
2018-Feb-15 04:00N 34°41' E 135°12'0 0.0
2018-Feb-15 03:30N 34°41' E 135°12'0 0.0
2018-Feb-15 03:00N 34°41' E 135°12'0 0.0
2018-Feb-15 02:30N 34°41' E 135°12'0 0.0
2018-Feb-15 02:00N 34°41' E 135°12'0 0.0
2018-Feb-15 01:30N 34°41' E 135°12'0 0.0
2018-Feb-15 01:00N 34°41' E 135°12'0 0.0
2018-Feb-15 00:31N 34°41' E 135°12'0 0.0
2018-Feb-15 00:00N 34°41' E 135°12'2 4.4
2018-Feb-14 23:31N 34°42' E 135°14'2 4.1
2018-Feb-14 23:00N 34°42' E 135°17'1 2.2
2018-Feb-14 22:31N 34°41' E 135°18'2 4.7
2018-Feb-14 22:00N 34°41' E 135°15'1 2.1
2018-Feb-14 21:30N 34°42' E 135°16'2 4.9
2018-Feb-14 21:01N 34°41' E 135°13'1 1.6
2018-Feb-14 20:31N 34°41' E 135°12'0 0.0
2018-Feb-14 07:53N 34°41' E 135°12'2 6.3
2018-Feb-14 07:30N 34°40' E 135°15'0 0.5
2018-Feb-14 07:01N 34°40' E 135°15'2 4.3
2018-Feb-14 06:30N 34°41' E 135°12'0 0.0
2018-Feb-14 06:00N 34°41' E 135°12'0 0.0
2018-Feb-14 05:30N 34°41' E 135°12'0 0.0
2018-Feb-14 05:00N 34°41' E 135°12'0 0.0
2018-Feb-14 04:30N 34°41' E 135°12'0 0.0
2018-Feb-14 04:00N 34°41' E 135°12'0 0.0
2018-Feb-14 03:30N 34°41' E 135°12'0 0.0
2018-Feb-14 03:00N 34°41' E 135°12'0 0.0
2018-Feb-14 02:30N 34°41' E 135°12'0 0.0
2018-Feb-14 02:00N 34°41' E 135°12'0 0.0
2018-Feb-14 01:31N 34°41' E 135°12'0 0.0
2018-Feb-14 01:00N 34°41' E 135°12'2 3.5
2018-Feb-14 00:31N 34°41' E 135°14'3 5.2
2018-Feb-14 00:00N 34°41' E 135°17'0 0.6
2018-Feb-13 23:30N 34°41' E 135°18'4 8.7
2018-Feb-13 23:00N 34°41' E 135°12'0 0.6
2018-Feb-13 22:30N 34°41' E 135°12'0 0.0
2018-Feb-13 22:00N 34°41' E 135°12'0 0.0
2018-Feb-13 21:31N 34°41' E 135°12'0 0.0
2018-Feb-13 21:00N 34°41' E 135°12'0 0.0
2018-Feb-13 20:30N 34°41' E 135°12'0 0.0
2018-Feb-13 13:51N 34°41' E 135°12'2 5.5
2018-Feb-13 13:30N 34°41' E 135°14'1 2.5
2018-Feb-13 13:00N 34°41' E 135°16'0 0.2
2018-Feb-13 12:31N 34°41' E 135°16'1 2.0
2018-Feb-13 12:01N 34°40' E 135°15'1 1.0
2018-Feb-13 11:30N 34°39' E 135°15'2 3.3
2018-Feb-13 11:01N 34°41' E 135°15'1 2.5
2018-Feb-13 10:30N 34°42' E 135°16'0 0.0
2018-Feb-13 10:00N 34°42' E 135°16'0 0.0
2018-Feb-13 09:30N 34°42' E 135°16'0 0.0
2018-Feb-13 09:01N 34°42' E 135°16'0 0.0
2018-Feb-13 08:31N 34°42' E 135°16'1 2.8
2018-Feb-13 08:01N 34°41' E 135°18'0 0.5
2018-Feb-13 07:30N 34°41' E 135°17'1 1.5
2018-Feb-13 07:01N 34°42' E 135°17'2 3.0
2018-Feb-13 06:31N 34°42' E 135°15'2 4.9
2018-Feb-13 06:00N 34°41' E 135°12'0 0.0
2018-Feb-13 05:31N 34°41' E 135°12'0 0.0
2018-Feb-13 05:00N 34°41' E 135°12'0 0.0
2018-Feb-13 04:30N 34°41' E 135°12'0 0.0
2018-Feb-13 04:01N 34°41' E 135°12'0 0.0
2018-Feb-13 03:30N 34°41' E 135°12'0 0.0
2018-Feb-13 03:00N 34°41' E 135°12'0 0.0
2018-Feb-13 02:30N 34°41' E 135°12'0 0.0
2018-Feb-13 02:01N 34°41' E 135°12'0 0.0
2018-Feb-13 01:31N 34°41' E 135°12'1 1.7
2018-Feb-13 01:00N 34°40' E 135°11'0 0.2
2018-Feb-13 00:30N 34°40' E 135°11'0 0.0
2018-Feb-13 00:01N 34°40' E 135°11'0 0.1
2018-Feb-12 23:30N 34°40' E 135°11'1 1.0
2018-Feb-12 23:01N 34°41' E 135°11'0 0.1
2018-Feb-12 22:30N 34°41' E 135°11'1 1.6
2018-Feb-12 22:00N 34°41' E 135°12'0 0.0
2018-Feb-12 21:31N 34°41' E 135°12'0 0.0
2018-Feb-12 05:54N 34°41' E 135°12'0 0.0
2018-Feb-12 05:30N 34°41' E 135°12'0 0.0
2018-Feb-12 05:00N 34°41' E 135°12'0 0.0
2018-Feb-12 04:30N 34°41' E 135°12'0 0.0
2018-Feb-12 04:00N 34°41' E 135°12'0 0.0
2018-Feb-12 03:30N 34°41' E 135°12'0 0.0
2018-Feb-12 03:00N 34°41' E 135°12'0 0.0
2018-Feb-12 02:30N 34°41' E 135°12'0 0.0
2018-Feb-12 02:00N 34°41' E 135°12'0 0.0
2018-Feb-12 01:30N 34°41' E 135°12'1 2.7
2018-Feb-12 01:00N 34°40' E 135°11'0 0.6
2018-Feb-12 00:30N 34°39' E 135°11'1 2.7
2018-Feb-12 00:00N 34°41' E 135°12'0 0.0
2018-Feb-11 23:30N 34°41' E 135°12'0 0.0
2018-Feb-11 23:00N 34°41' E 135°12'0 0.0
2018-Feb-11 22:30N 34°41' E 135°12'0 0.0
2018-Feb-11 06:54N 34°41' E 135°12'2 5.8
2018-Feb-11 06:30N 34°41' E 135°15'2 4.2
2018-Feb-11 06:00N 34°41' E 135°17'0 0.2
2018-Feb-11 05:29N 34°41' E 135°18'1 2.1
2018-Feb-11 05:00N 34°40' E 135°18'3 6.2
2018-Feb-11 04:30N 34°41' E 135°15'2 4.2
2018-Feb-11 04:01N 34°41' E 135°12'0 0.0
2018-Feb-11 03:30N 34°41' E 135°12'0 0.0
2018-Feb-11 03:00N 34°41' E 135°12'0 0.0
2018-Feb-11 02:31N 34°41' E 135°12'0 0.0
2018-Feb-11 02:00N 34°41' E 135°12'0 0.0
2018-Feb-11 01:30N 34°41' E 135°12'0 0.0
2018-Feb-11 01:00N 34°41' E 135°12'0 0.0
2018-Feb-11 00:30N 34°41' E 135°12'0 0.0
2018-Feb-11 00:00N 34°41' E 135°12'0 0.0
2018-Feb-10 23:30N 34°41' E 135°12'0 0.1
2018-Feb-10 23:00N 34°41' E 135°12'2 3.6
2018-Feb-10 22:30N 34°40' E 135°14'2 3.5
2018-Feb-10 22:00N 34°39' E 135°16'3 6.1
2018-Feb-10 21:30N 34°41' E 135°13'1 1.8
2018-Feb-10 21:00N 34°41' E 135°12'0 0.0
2018-Feb-10 08:24N 34°41' E 135°12'3 6.6
2018-Feb-10 08:01N 34°42' E 135°15'0 0.2
2018-Feb-10 07:31N 34°42' E 135°15'2 4.9
2018-Feb-10 07:01N 34°41' E 135°12'  

Dump ship's entire track history